createdAt,value
2022-12-18T00:00:38.297Z,29.88
2022-12-18T00:03:39.423Z,30.70
2022-12-18T00:06:31.444Z,30.58
2022-12-18T00:09:31.354Z,28.98
2022-12-18T00:12:39.156Z,29.15
2022-12-18T00:15:45.795Z,27.55
2022-12-18T00:18:57.483Z,28.33
2022-12-18T00:21:51.883Z,27.70
2022-12-18T00:24:48.513Z,26.17
2022-12-18T00:27:37.628Z,27.48
2022-12-18T00:30:32.074Z,24.65
2022-12-18T00:33:30.456Z,25.30
2022-12-18T00:36:26.709Z,25.20
2022-12-18T00:39:34.896Z,23.73
2022-12-18T00:42:42.633Z,23.60
2022-12-18T00:45:43.306Z,23.20
2022-12-18T00:48:34.980Z,23.55
2022-12-18T00:51:28.912Z,24.88
2022-12-18T00:54:18.575Z,24.40
2022-12-18T00:57:07.035Z,24.38
2022-12-18T00:59:57.490Z,22.88
2022-12-18T01:02:52.474Z,23.27
2022-12-18T01:05:43.649Z,23.98
2022-12-18T01:08:31.566Z,22.25
2022-12-18T01:11:21.877Z,23.23
2022-12-18T01:14:10.358Z,23.95
2022-12-18T01:17:00.637Z,24.02
2022-12-18T01:19:49.052Z,24.67
2022-12-18T01:22:38.035Z,26.13
2022-12-18T01:25:28.628Z,24.73
2022-12-18T01:28:24.227Z,24.92
2022-12-18T01:31:21.425Z,25.52
2022-12-18T01:34:11.412Z,24.58
2022-12-18T01:37:00.023Z,22.27
2022-12-18T01:39:48.471Z,22.20
2022-12-18T01:42:37.234Z,22.65
2022-12-18T01:45:33.705Z,22.77
2022-12-18T01:48:26.510Z,23.10
2022-12-18T01:51:17.754Z,17.88
2022-12-18T01:54:05.946Z,21.63
2022-12-18T01:56:56.903Z,23.17
2022-12-18T01:59:53.164Z,23.45
2022-12-18T02:02:43.684Z,22.15
2022-12-18T02:06:13.400Z,22.52
2022-12-18T02:09:18.232Z,21.25
2022-12-18T02:12:19.415Z,20.63
2022-12-18T02:16:01.543Z,22.58
2022-12-18T02:19:02.259Z,24.15
2022-12-18T02:22:36.067Z,23.15
2022-12-18T02:26:00.527Z,23.42
2022-12-18T02:29:12.049Z,23.50
2022-12-18T02:32:01.891Z,22.17
2022-12-18T02:34:52.207Z,23.42
2022-12-18T02:37:44.361Z,21.73
2022-12-18T02:40:34.767Z,21.63
2022-12-18T02:43:29.396Z,21.13
2022-12-18T02:46:43.561Z,23.92
2022-12-18T02:49:40.396Z,23.88
2022-12-18T02:52:56.602Z,21.25
2022-12-18T02:56:12.540Z,19.90
2022-12-18T02:59:15.404Z,21.48
2022-12-18T03:02:24.898Z,22.00
2022-12-18T03:05:23.834Z,20.58
2022-12-18T03:08:24.166Z,22.77
2022-12-18T03:11:15.007Z,20.83
2022-12-18T03:14:04.507Z,23.05
2022-12-18T03:16:56.293Z,23.17
2022-12-18T03:19:49.677Z,22.75
2022-12-18T03:25:29.289Z,20.98
2022-12-18T03:28:23.824Z,22.23
2022-12-18T03:31:16.020Z,20.75
2022-12-18T03:34:11.117Z,21.95
2022-12-18T03:36:59.254Z,21.70
2022-12-18T03:39:47.871Z,21.42
2022-12-18T03:42:59.002Z,23.27
2022-12-18T03:46:07.065Z,22.38
2022-12-18T03:49:07.582Z,22.58
2022-12-18T03:52:08.477Z,21.83
2022-12-18T03:55:01.236Z,22.38
2022-12-18T03:57:53.952Z,22.45
2022-12-18T04:00:43.501Z,21.75
2022-12-18T04:03:37.326Z,21.52
2022-12-18T04:06:32.492Z,24.08
2022-12-18T04:09:27.441Z,23.23
2022-12-18T04:12:20.139Z,23.10
2022-12-18T04:15:09.641Z,21.95
2022-12-18T04:17:59.965Z,23.65
2022-12-18T04:20:48.388Z,24.70
2022-12-18T04:23:37.581Z,24.90
2022-12-18T04:26:25.806Z,22.67
2022-12-18T04:29:14.020Z,21.48
2022-12-18T04:32:02.554Z,22.55
2022-12-18T04:34:51.003Z,24.05
2022-12-18T04:37:40.764Z,21.33
2022-12-18T04:40:28.902Z,23.10
2022-12-18T04:43:17.615Z,23.85
2022-12-18T04:46:08.053Z,22.13
2022-12-18T04:48:56.274Z,22.67
2022-12-18T04:51:44.596Z,22.35
2022-12-18T04:54:35.050Z,22.15
2022-12-18T04:57:24.788Z,21.75
2022-12-18T05:00:13.731Z,21.67
2022-12-18T05:03:03.574Z,20.95
2022-12-18T05:05:52.986Z,22.70
2022-12-18T05:08:41.323Z,20.60
2022-12-18T05:11:29.409Z,23.48
2022-12-18T05:14:20.061Z,22.65
2022-12-18T05:17:08.203Z,22.50
2022-12-18T05:19:56.119Z,22.95
2022-12-18T05:22:47.105Z,25.40
2022-12-18T05:25:37.805Z,23.40
2022-12-18T05:28:28.662Z,23.70
2022-12-18T05:31:19.218Z,20.52
2022-12-18T05:34:07.196Z,22.40
2022-12-18T05:36:55.294Z,21.23
2022-12-18T05:39:44.693Z,23.58
2022-12-18T05:42:32.786Z,22.35
2022-12-18T05:45:21.410Z,21.73
2022-12-18T05:48:11.751Z,23.88
2022-12-18T05:51:08.223Z,23.42
2022-12-18T05:53:56.862Z,23.67
2022-12-18T05:56:48.642Z,21.83
2022-12-18T05:59:37.412Z,22.77
2022-12-18T06:02:25.600Z,21.67
2022-12-18T06:05:13.862Z,23.23
2022-12-18T06:08:02.200Z,22.42
2022-12-18T06:10:53.858Z,21.73
2022-12-18T06:13:42.452Z,23.00
2022-12-18T06:16:33.794Z,22.70
2022-12-18T06:19:21.838Z,22.85
2022-12-18T06:22:10.112Z,22.98
2022-12-18T06:24:58.751Z,23.30
2022-12-18T06:27:49.568Z,22.08
2022-12-18T06:30:37.921Z,22.02
2022-12-18T06:33:29.265Z,23.17
2022-12-18T06:36:17.722Z,22.23
2022-12-18T06:39:08.546Z,21.30
2022-12-18T06:41:57.588Z,23.30
2022-12-18T06:44:45.826Z,23.20
2022-12-18T06:47:34.934Z,23.73
2022-12-18T06:50:23.316Z,24.70
2022-12-18T06:53:11.734Z,23.38
2022-12-18T06:56:10.654Z,22.98
2022-12-18T06:58:59.227Z,24.73
2022-12-18T07:01:53.286Z,24.55
2022-12-18T07:04:41.511Z,22.20
2022-12-18T07:07:29.783Z,23.98
2022-12-18T07:10:17.952Z,23.83
2022-12-18T07:13:05.892Z,24.80
2022-12-18T07:15:53.844Z,23.95
2022-12-18T07:18:41.990Z,24.00
2022-12-18T07:21:33.083Z,23.98
2022-12-18T07:24:27.686Z,24.98
2022-12-18T07:27:15.959Z,22.92
2022-12-18T07:30:12.194Z,22.67
2022-12-18T07:33:00.126Z,23.83
2022-12-18T07:35:48.300Z,24.05
2022-12-18T07:38:36.981Z,23.88
2022-12-18T07:41:25.105Z,24.73
2022-12-18T07:44:14.386Z,24.02
2022-12-18T07:47:03.952Z,23.27
2022-12-18T07:50:08.536Z,22.48
2022-12-18T07:52:56.476Z,23.15
2022-12-18T07:56:24.987Z,24.70
2022-12-18T07:58:56.064Z,24.00
2022-12-18T08:01:44.194Z,23.67
2022-12-18T08:04:32.874Z,23.92
2022-12-18T08:07:29.666Z,25.92
2022-12-18T08:10:20.842Z,26.15
2022-12-18T08:13:09.100Z,26.50
2022-12-18T08:16:03.941Z,25.17
2022-12-18T08:18:57.076Z,24.77
2022-12-18T08:21:55.452Z,24.60
2022-12-18T08:24:43.498Z,23.73
2022-12-18T08:27:36.107Z,24.42
2022-12-18T08:30:24.128Z,24.08
2022-12-18T08:33:12.389Z,23.90
2022-12-18T08:36:02.135Z,25.98
2022-12-18T08:38:53.037Z,25.88
2022-12-18T08:42:09.875Z,25.55
2022-12-18T08:45:04.215Z,27.50
2022-12-18T08:47:52.522Z,27.13
2022-12-18T08:50:59.236Z,25.60
2022-12-18T08:53:48.474Z,28.35
2022-12-18T08:56:41.965Z,30.27
2022-12-18T09:02:46.807Z,28.10
2022-12-18T09:05:35.111Z,28.23
2022-12-18T09:08:27.868Z,27.80
2022-12-18T09:11:22.858Z,28.67
2022-12-18T09:14:12.359Z,27.45
2022-12-18T09:17:03.219Z,28.88
2022-12-18T09:19:51.788Z,29.58
2022-12-18T09:22:39.810Z,29.27
2022-12-18T09:25:33.198Z,27.65
2022-12-18T09:28:24.918Z,29.13
2022-12-18T09:31:14.771Z,28.02
2022-12-18T09:34:03.396Z,28.50
2022-12-18T09:36:57.455Z,28.80
2022-12-18T09:39:45.529Z,29.60
2022-12-18T09:42:34.206Z,31.67
2022-12-18T09:45:23.098Z,35.58
2022-12-18T09:48:44.121Z,34.33
2022-12-18T09:51:56.887Z,31.85
2022-12-18T09:54:55.431Z,35.08
2022-12-18T09:57:54.108Z,35.60
2022-12-18T10:00:43.915Z,33.65
2022-12-18T10:03:33.495Z,34.53
2022-12-18T10:06:36.979Z,34.70
2022-12-18T10:10:31.538Z,33.30
2022-12-18T10:13:36.098Z,33.17
2022-12-18T10:16:42.373Z,34.70
2022-12-18T10:19:50.532Z,34.92
2022-12-18T10:23:03.937Z,36.00
2022-12-18T10:26:07.983Z,37.25
2022-12-18T10:29:05.131Z,38.60
2022-12-18T10:31:55.818Z,40.50
2022-12-18T10:34:54.056Z,39.70
2022-12-18T10:38:29.020Z,40.20
2022-12-18T10:41:24.262Z,41.17
2022-12-18T10:44:21.114Z,41.15
2022-12-18T10:47:16.263Z,41.25
2022-12-18T10:50:05.348Z,41.92
2022-12-18T10:53:00.853Z,52.72
2022-12-18T10:55:54.613Z,40.47
2022-12-18T10:58:43.564Z,41.00
2022-12-18T11:01:56.177Z,43.45
2022-12-18T11:04:53.051Z,41.00
2022-12-18T11:07:55.436Z,41.38
2022-12-18T11:10:48.663Z,41.85
2022-12-18T11:13:39.329Z,41.92
2022-12-18T11:16:29.560Z,39.42
2022-12-18T11:19:44.872Z,41.13
2022-12-18T11:22:36.733Z,36.92
2022-12-18T11:25:34.589Z,36.00
2022-12-18T11:28:31.532Z,39.45
2022-12-18T11:31:32.883Z,37.40
2022-12-18T11:34:34.658Z,38.72
2022-12-18T11:37:24.965Z,39.90
2022-12-18T11:40:40.731Z,40.80
2022-12-18T11:44:01.663Z,38.80
2022-12-18T11:46:58.079Z,40.15
2022-12-18T11:49:49.787Z,41.58
2022-12-18T11:52:44.189Z,42.42
2022-12-18T11:56:01.449Z,41.58
2022-12-18T11:59:02.478Z,40.35
2022-12-18T12:02:20.118Z,41.10
2022-12-18T12:05:36.552Z,38.28
2022-12-18T12:08:40.087Z,43.20
2022-12-18T12:12:22.009Z,40.88
2022-12-18T12:15:42.832Z,40.55
2022-12-18T12:19:14.873Z,43.45
2022-12-18T12:22:13.872Z,42.50
2022-12-18T12:25:34.644Z,39.95
2022-12-18T12:28:53.501Z,43.17
2022-12-18T12:32:25.100Z,44.10
2022-12-18T12:39:01.469Z,42.25
2022-12-18T12:42:08.189Z,40.42
2022-12-18T12:45:00.214Z,37.22
2022-12-18T12:47:51.157Z,38.28
2022-12-18T12:50:43.667Z,43.80
2022-12-18T12:53:37.705Z,40.63
2022-12-18T12:56:52.181Z,38.05
2022-12-18T12:59:48.939Z,40.58
2022-12-18T13:03:25.242Z,40.60
2022-12-18T13:06:29.323Z,40.92
2022-12-18T13:09:18.528Z,41.60
2022-12-18T13:12:39.473Z,43.13
2022-12-18T13:15:52.402Z,41.55
2022-12-18T13:18:58.649Z,39.15
2022-12-18T13:22:00.091Z,41.03
2022-12-18T13:24:51.591Z,42.05
2022-12-18T13:27:49.009Z,41.53
2022-12-18T13:30:40.083Z,43.00
2022-12-18T13:33:32.373Z,41.10
2022-12-18T13:36:35.253Z,44.25
2022-12-18T13:42:59.704Z,40.65
2022-12-18T13:46:57.190Z,39.08
2022-12-18T13:49:46.133Z,42.50
2022-12-18T13:52:42.963Z,44.00
2022-12-18T13:55:31.241Z,43.58
2022-12-18T13:58:24.811Z,41.25
2022-12-18T14:01:28.536Z,39.95
2022-12-18T14:04:34.887Z,40.67
2022-12-18T14:07:45.170Z,41.17
2022-12-18T14:10:49.361Z,37.97
2022-12-18T14:13:42.703Z,40.10
2022-12-18T14:16:37.647Z,42.65
2022-12-18T14:19:28.027Z,38.13
2022-12-18T14:22:26.467Z,39.15
2022-12-18T14:25:14.418Z,40.08
2022-12-18T14:28:11.568Z,45.08
2022-12-18T14:30:59.968Z,40.97
2022-12-18T14:33:51.761Z,42.70
2022-12-18T14:36:45.477Z,41.45
2022-12-18T14:42:25.661Z,41.95
2022-12-18T14:45:43.413Z,41.35
2022-12-18T14:48:48.917Z,39.92
2022-12-18T14:51:38.427Z,39.72
2022-12-18T14:54:31.217Z,40.83
2022-12-18T14:57:28.020Z,41.03
2022-12-18T15:00:36.220Z,41.33
2022-12-18T15:03:25.433Z,39.47
2022-12-18T15:06:45.283Z,40.25
2022-12-18T15:09:37.441Z,40.13
2022-12-18T15:12:38.776Z,39.08
2022-12-18T15:15:39.295Z,40.85
2022-12-18T15:18:53.700Z,41.50
2022-12-18T15:21:47.448Z,43.90
2022-12-18T15:24:42.330Z,42.00
2022-12-18T15:27:37.615Z,45.00
2022-12-18T15:30:29.849Z,47.53
2022-12-18T15:33:32.534Z,45.38
2022-12-18T15:36:30.232Z,44.88
2022-12-18T15:39:19.296Z,43.15
2022-12-18T15:42:32.269Z,41.90
2022-12-18T15:45:22.416Z,39.97
2022-12-18T15:48:24.255Z,43.17
2022-12-18T15:51:26.049Z,42.47
2022-12-18T15:54:42.096Z,42.67
2022-12-18T15:57:36.183Z,45.72
2022-12-18T16:00:26.308Z,44.20
2022-12-18T16:03:27.450Z,42.33
2022-12-18T16:06:18.562Z,42.42
2022-12-18T16:09:15.683Z,41.92
2022-12-18T16:12:28.870Z,44.10
2022-12-18T16:15:28.893Z,47.83
2022-12-18T16:18:34.946Z,43.28
2022-12-18T16:21:34.105Z,44.47
2022-12-18T16:24:37.211Z,44.45
2022-12-18T16:34:38.256Z,46.92
2022-12-18T16:44:43.389Z,43.38
2022-12-18T16:47:43.431Z,44.78
2022-12-18T16:50:49.296Z,43.75
2022-12-18T16:53:48.241Z,45.10
2022-12-18T17:00:47.462Z,44.72
2022-12-18T17:04:09.549Z,40.95
2022-12-18T17:10:39.072Z,42.97
2022-12-18T17:14:08.088Z,41.92
2022-12-18T17:17:37.461Z,42.88
2022-12-18T17:31:36.259Z,46.63
2022-12-18T18:03:00.171Z,43.58
2022-12-18T18:06:30.434Z,43.75
2022-12-18T18:19:55.415Z,48.17
2022-12-18T18:23:10.385Z,45.88
2022-12-18T18:34:18.890Z,44.92
2022-12-18T18:37:44.429Z,47.75
2022-12-18T18:41:13.216Z,47.42
2022-12-18T18:53:25.540Z,48.80
2022-12-18T19:00:55.088Z,46.95
2022-12-18T19:03:52.941Z,48.63
2022-12-18T19:06:47.271Z,48.45
2022-12-18T19:09:52.005Z,81.78
2022-12-18T19:13:09.379Z,61.08
2022-12-18T19:25:13.330Z,49.08
2022-12-18T19:32:04.543Z,46.50
2022-12-18T19:35:52.146Z,47.65
2022-12-18T19:38:46.687Z,45.35
2022-12-18T19:41:45.491Z,40.53
2022-12-18T19:48:27.941Z,41.70
2022-12-18T19:52:01.297Z,37.95
2022-12-18T19:55:02.160Z,37.78
2022-12-18T19:58:45.151Z,39.97
2022-12-18T20:09:51.606Z,37.33
2022-12-18T20:17:10.959Z,38.10
2022-12-18T20:20:40.140Z,38.08
2022-12-18T20:27:30.678Z,41.80
2022-12-18T20:31:03.442Z,39.60
2022-12-18T20:34:37.703Z,40.95
2022-12-18T20:43:22.418Z,39.83
2022-12-18T20:51:26.667Z,35.50
2022-12-18T21:07:07.019Z,40.13
2022-12-18T21:18:13.655Z,40.95
2022-12-18T21:18:51.298Z,40.70
2022-12-18T21:22:47.205Z,37.55
2022-12-18T21:26:21.127Z,39.65
2022-12-18T21:29:39.302Z,38.05
2022-12-18T21:37:12.260Z,37.30
2022-12-18T21:40:17.060Z,38.60
2022-12-18T21:44:06.264Z,38.55
2022-12-18T21:47:22.070Z,38.72
2022-12-18T21:50:54.217Z,39.78
2022-12-18T21:57:31.961Z,38.63
2022-12-18T22:00:52.666Z,37.58
2022-12-18T22:04:29.025Z,39.30
2022-12-18T22:07:29.806Z,40.30
2022-12-18T22:18:04.848Z,40.40
2022-12-18T22:24:00.988Z,40.67
2022-12-18T22:27:29.792Z,40.30
2022-12-18T22:30:41.115Z,41.40
2022-12-18T22:37:49.268Z,38.67
2022-12-18T22:41:35.863Z,38.45
2022-12-18T22:44:53.253Z,38.58
2022-12-18T22:48:00.912Z,37.00
2022-12-18T22:58:05.615Z,40.42
2022-12-18T23:01:21.675Z,37.80
2022-12-18T23:08:19.605Z,37.88
2022-12-18T23:11:19.411Z,36.67
2022-12-18T23:14:37.443Z,38.35
2022-12-18T23:18:28.052Z,39.20
2022-12-18T23:21:47.575Z,37.45
2022-12-18T23:28:17.597Z,38.63
2022-12-18T23:32:57.137Z,39.90
2022-12-18T23:35:27.839Z,39.13
2022-12-18T23:38:43.842Z,37.58
2022-12-18T23:41:58.223Z,36.28
2022-12-18T23:48:52.253Z,37.88
2022-12-18T23:51:54.372Z,37.05
2022-12-18T23:58:26.206Z,39.28
